createdAt,value
2017-11-24T00:00:20.347Z,3.40
2017-11-24T00:01:20.379Z,3.20
2017-11-24T00:02:20.414Z,3.00
2017-11-24T00:03:20.448Z,2.80
2017-11-24T00:04:20.480Z,3.00
2017-11-24T00:05:20.519Z,3.50
2017-11-24T00:06:20.549Z,3.30
2017-11-24T00:07:20.582Z,3.20
2017-11-24T00:08:20.616Z,3.30
2017-11-24T00:09:20.647Z,3.10
2017-11-24T00:10:20.682Z,3.40
2017-11-24T00:11:20.716Z,3.30
2017-11-24T00:12:20.756Z,3.00
2017-11-24T00:13:20.783Z,3.30
2017-11-24T00:14:20.817Z,3.20
2017-11-24T00:15:20.850Z,3.30
2017-11-24T00:16:20.884Z,3.20
2017-11-24T00:17:20.919Z,3.20
2017-11-24T00:18:20.951Z,3.30
2017-11-24T00:19:20.984Z,3.20
2017-11-24T00:20:21.017Z,3.90
2017-11-24T00:21:21.059Z,3.00
2017-11-24T00:22:21.084Z,2.70
2017-11-24T00:23:21.118Z,3.30
2017-11-24T00:24:21.151Z,3.40
2017-11-24T00:25:21.184Z,3.20
2017-11-24T00:26:21.219Z,3.30
2017-11-24T00:27:21.250Z,2.60
2017-11-24T00:28:21.284Z,3.10
2017-11-24T00:29:21.316Z,3.30
2017-11-24T00:30:21.350Z,3.80
2017-11-24T00:31:21.382Z,2.90
2017-11-24T00:32:21.417Z,3.40
2017-11-24T00:33:21.449Z,3.20
2017-11-24T00:34:21.484Z,3.70
2017-11-24T00:35:21.516Z,3.20
2017-11-24T00:36:21.551Z,3.40
2017-11-24T00:37:21.582Z,3.70
2017-11-24T00:38:21.616Z,3.00
2017-11-24T00:39:21.648Z,3.10
2017-11-24T00:40:21.682Z,3.60
2017-11-24T00:41:21.716Z,3.20
2017-11-24T00:42:21.751Z,3.40
2017-11-24T00:43:21.781Z,3.10
2017-11-24T00:44:21.815Z,3.50
2017-11-24T00:45:21.847Z,3.30
2017-11-24T00:46:21.881Z,3.40
2017-11-24T00:47:21.917Z,3.40
2017-11-24T00:48:21.948Z,3.70
2017-11-24T00:49:21.980Z,3.80
2017-11-24T00:50:22.014Z,3.40
2017-11-24T00:51:22.046Z,3.70
2017-11-24T00:52:22.100Z,3.20
2017-11-24T00:53:22.113Z,3.30
2017-11-24T00:54:22.146Z,3.70
2017-11-24T00:55:22.179Z,3.00
2017-11-24T00:56:22.211Z,3.10
2017-11-24T00:57:22.250Z,3.00
2017-11-24T00:58:22.278Z,3.40
2017-11-24T00:59:22.311Z,3.40
2017-11-24T01:00:22.344Z,3.50
2017-11-24T01:01:22.377Z,3.30
2017-11-24T01:02:22.410Z,3.50
2017-11-24T01:03:22.444Z,3.60
2017-11-24T01:04:22.477Z,2.90
2017-11-24T01:05:22.509Z,3.90
2017-11-24T01:06:22.542Z,4.00
2017-11-24T01:07:22.574Z,3.10
2017-11-24T01:08:22.607Z,3.50
2017-11-24T01:09:22.640Z,3.50
2017-11-24T01:10:22.675Z,3.30
2017-11-24T01:11:22.706Z,4.00
2017-11-24T01:12:22.740Z,3.40
2017-11-24T01:13:22.772Z,3.50
2017-11-24T01:14:22.805Z,3.80
2017-11-24T01:15:22.838Z,3.70
2017-11-24T01:16:22.872Z,3.50
2017-11-24T01:17:22.903Z,3.60
2017-11-24T01:18:22.936Z,3.50
2017-11-24T01:19:22.969Z,3.90
2017-11-24T01:20:23.002Z,3.40
2017-11-24T01:21:23.034Z,3.00
2017-11-24T01:22:23.067Z,3.90
2017-11-24T01:23:23.099Z,3.70
2017-11-24T01:24:23.134Z,3.80
2017-11-24T01:25:23.164Z,4.00
2017-11-24T01:26:23.198Z,3.80
2017-11-24T01:27:23.230Z,3.90
2017-11-24T01:28:23.263Z,3.80
2017-11-24T01:29:23.295Z,4.00
2017-11-24T01:30:23.326Z,3.90
2017-11-24T01:31:23.359Z,4.20
2017-11-24T01:32:23.392Z,3.50
2017-11-24T01:33:23.423Z,3.80
2017-11-24T01:34:23.457Z,3.70
2017-11-24T01:35:23.489Z,4.00
2017-11-24T01:36:23.523Z,3.40
2017-11-24T01:37:23.554Z,3.70
2017-11-24T01:38:23.587Z,4.20
2017-11-24T01:39:23.620Z,4.10
2017-11-24T01:40:23.651Z,3.40
2017-11-24T01:41:23.686Z,3.60
2017-11-24T01:42:23.715Z,3.70
2017-11-24T01:43:23.747Z,3.70
2017-11-24T01:44:23.780Z,3.70
2017-11-24T01:45:23.811Z,3.90
2017-11-24T01:46:23.845Z,3.70
2017-11-24T01:47:23.877Z,3.30
2017-11-24T01:48:23.909Z,3.60
2017-11-24T01:49:23.939Z,4.00
2017-11-24T01:50:23.973Z,3.10
2017-11-24T01:51:24.006Z,4.30
2017-11-24T01:52:24.036Z,4.10
2017-11-24T01:53:24.068Z,3.70
2017-11-24T01:54:24.102Z,4.20
2017-11-24T01:55:24.133Z,4.10
2017-11-24T01:56:24.171Z,4.20
2017-11-24T01:57:24.198Z,4.30
2017-11-24T01:58:24.230Z,3.80
2017-11-24T01:59:24.260Z,3.80
2017-11-24T02:00:24.293Z,4.70
2017-11-24T02:01:24.324Z,4.30
2017-11-24T02:02:24.357Z,3.60
2017-11-24T02:03:24.388Z,4.10
2017-11-24T02:04:24.421Z,3.80
2017-11-24T02:05:24.453Z,3.80
2017-11-24T02:06:24.483Z,3.90
2017-11-24T02:07:24.515Z,4.20
2017-11-24T02:08:24.548Z,3.70
2017-11-24T02:09:24.579Z,4.10
2017-11-24T02:10:24.609Z,3.80
2017-11-24T02:11:24.642Z,4.30
2017-11-24T02:12:24.673Z,3.60
2017-11-24T02:13:24.705Z,3.60
2017-11-24T02:14:24.735Z,3.80
2017-11-24T02:15:24.768Z,4.30
2017-11-24T02:16:24.800Z,4.20
2017-11-24T02:17:24.829Z,3.70
2017-11-24T02:18:24.862Z,3.90
2017-11-24T02:19:24.895Z,4.20
2017-11-24T02:20:24.927Z,4.00
2017-11-24T02:21:24.956Z,4.20
2017-11-24T02:22:24.988Z,3.60
2017-11-24T02:23:25.019Z,4.00
2017-11-24T02:24:25.053Z,4.20
2017-11-24T02:25:25.082Z,4.70
2017-11-24T02:26:25.114Z,4.80
2017-11-24T02:27:25.150Z,4.00
2017-11-24T02:28:25.177Z,4.60
2017-11-24T02:29:25.211Z,4.80
2017-11-24T02:30:25.240Z,4.20
2017-11-24T02:31:25.273Z,4.40
2017-11-24T02:32:25.302Z,4.00
2017-11-24T02:33:25.333Z,4.30
2017-11-24T02:34:25.365Z,4.00
2017-11-24T02:35:25.397Z,4.70
2017-11-24T02:36:25.429Z,4.40
2017-11-24T02:37:25.458Z,4.50
2017-11-24T02:38:25.490Z,4.70
2017-11-24T02:39:25.524Z,4.90
2017-11-24T02:40:25.554Z,4.60
2017-11-24T02:41:25.583Z,4.80
2017-11-24T02:42:25.616Z,4.70
2017-11-24T02:43:25.645Z,5.10
2017-11-24T02:44:25.691Z,4.80
2017-11-24T02:45:25.709Z,5.30
2017-11-24T02:46:25.738Z,4.60
2017-11-24T02:47:25.783Z,5.20
2017-11-24T02:48:25.814Z,5.60
2017-11-24T02:49:25.843Z,4.40
2017-11-24T02:50:25.875Z,4.30
2017-11-24T02:51:25.907Z,4.50
2017-11-24T02:52:25.944Z,4.90
2017-11-24T02:53:25.969Z,4.50
2017-11-24T02:54:26.019Z,4.80
2017-11-24T02:55:26.031Z,4.90
2017-11-24T02:56:26.062Z,4.30
2017-11-24T02:57:26.092Z,5.00
2017-11-24T02:58:26.124Z,4.70
2017-11-24T02:59:26.157Z,4.50
2017-11-24T03:00:26.186Z,4.50
2017-11-24T03:01:26.217Z,5.10
2017-11-24T03:02:26.248Z,4.70
2017-11-24T03:03:26.279Z,4.50
2017-11-24T03:04:26.297Z,4.80
2017-11-24T03:05:26.336Z,4.20
2017-11-24T03:06:26.360Z,4.70
2017-11-24T03:07:26.388Z,4.20
2017-11-24T03:08:26.422Z,4.50
2017-11-24T03:09:26.451Z,5.70
2017-11-24T03:10:26.484Z,4.90
2017-11-24T03:11:26.514Z,4.60
2017-11-24T03:12:26.545Z,4.40
2017-11-24T03:13:26.575Z,4.20
2017-11-24T03:14:26.606Z,4.40
2017-11-24T03:15:26.638Z,4.90
2017-11-24T03:16:26.668Z,4.60
2017-11-24T03:17:26.698Z,5.40
2017-11-24T03:18:26.730Z,5.30
2017-11-24T03:19:26.761Z,4.70
2017-11-24T03:20:26.791Z,4.90
2017-11-24T03:21:26.821Z,5.90
2017-11-24T03:22:26.851Z,4.70
2017-11-24T03:23:26.884Z,5.50
2017-11-24T03:24:26.915Z,4.50
2017-11-24T03:25:26.944Z,4.40
2017-11-24T03:26:26.976Z,4.70
2017-11-24T03:27:27.006Z,5.30
2017-11-24T03:28:27.039Z,4.80
2017-11-24T03:29:27.068Z,5.70
2017-11-24T03:30:27.099Z,5.90
2017-11-24T03:31:27.128Z,5.10
2017-11-24T03:32:27.160Z,5.50
2017-11-24T03:33:27.189Z,5.50
2017-11-24T03:34:27.234Z,5.10
2017-11-24T03:35:27.251Z,5.10
2017-11-24T03:36:27.288Z,4.90
2017-11-24T03:37:27.312Z,4.80
2017-11-24T03:38:27.344Z,5.70
2017-11-24T03:39:27.375Z,5.00
2017-11-24T03:40:27.405Z,4.90
2017-11-24T03:41:27.434Z,4.80
2017-11-24T03:42:27.466Z,5.20
2017-11-24T03:43:27.496Z,5.10
2017-11-24T03:44:27.526Z,5.10
2017-11-24T03:45:27.557Z,5.00
2017-11-24T03:46:27.588Z,4.80
2017-11-24T03:47:27.620Z,4.20
2017-11-24T03:48:27.650Z,4.50
2017-11-24T03:49:27.679Z,5.10
2017-11-24T03:50:27.711Z,4.30
2017-11-24T03:51:27.742Z,4.30
2017-11-24T03:52:27.774Z,4.90
2017-11-24T03:53:27.807Z,5.50
2017-11-24T03:54:27.833Z,5.10
2017-11-24T03:55:27.866Z,4.90
2017-11-24T03:56:27.895Z,4.50
2017-11-24T03:57:27.925Z,4.80
2017-11-24T03:58:27.956Z,4.70
2017-11-24T03:59:27.991Z,4.70
2017-11-24T04:00:28.017Z,6.10
2017-11-24T04:01:28.048Z,5.30
2017-11-24T04:02:28.078Z,4.40
2017-11-24T04:03:28.108Z,4.80
2017-11-24T04:04:28.139Z,4.90
2017-11-24T04:05:28.169Z,5.40
2017-11-24T04:06:28.199Z,5.10
2017-11-24T04:07:28.231Z,4.50
2017-11-24T04:08:28.261Z,4.80
2017-11-24T04:09:28.292Z,4.90
2017-11-24T04:10:28.322Z,5.10
2017-11-24T04:11:28.352Z,5.60
2017-11-24T04:12:28.389Z,6.00
2017-11-24T04:13:28.413Z,4.80
2017-11-24T04:14:28.446Z,5.10
2017-11-24T04:15:28.475Z,5.10
2017-11-24T04:16:28.507Z,4.90
2017-11-24T04:17:28.537Z,4.60
2017-11-24T04:18:28.572Z,4.00
2017-11-24T04:19:28.597Z,4.80
2017-11-24T04:20:28.628Z,4.80
2017-11-24T04:21:28.659Z,5.00
2017-11-24T04:22:28.690Z,4.70
2017-11-24T04:23:28.721Z,4.60
2017-11-24T04:24:28.752Z,4.60
2017-11-24T04:25:28.781Z,4.30
2017-11-24T04:26:28.812Z,4.30
2017-11-24T04:27:28.843Z,4.10
2017-11-24T04:28:28.874Z,3.80
2017-11-24T04:29:28.903Z,4.20
2017-11-24T04:30:28.935Z,4.20
2017-11-24T04:31:28.965Z,4.60
2017-11-24T04:32:28.997Z,3.70
2017-11-24T04:33:29.026Z,4.70
2017-11-24T04:34:29.062Z,3.70
2017-11-24T04:35:29.089Z,3.90
2017-11-24T04:36:29.123Z,4.10
2017-11-24T04:37:29.149Z,3.40
2017-11-24T04:38:29.180Z,4.20
2017-11-24T04:39:29.212Z,4.30
2017-11-24T04:40:29.244Z,4.10
2017-11-24T04:41:29.274Z,4.30
2017-11-24T04:42:29.305Z,3.90
2017-11-24T04:43:29.335Z,3.90
2017-11-24T04:44:29.373Z,3.90
2017-11-24T04:45:29.399Z,4.00
2017-11-24T04:46:29.433Z,4.00
2017-11-24T04:47:29.461Z,3.60
2017-11-24T04:48:29.492Z,4.20
2017-11-24T04:49:29.524Z,4.00
2017-11-24T04:50:29.555Z,3.10
2017-11-24T04:51:29.585Z,2.60
2017-11-24T04:52:29.618Z,3.30
2017-11-24T04:53:29.649Z,2.90
2017-11-24T04:54:29.680Z,3.40
2017-11-24T04:55:29.711Z,2.80
2017-11-24T04:56:29.744Z,2.70
2017-11-24T04:57:29.776Z,2.70
2017-11-24T04:58:29.806Z,3.20
2017-11-24T04:59:29.839Z,2.90
2017-11-24T05:00:29.871Z,3.10
2017-11-24T05:01:29.902Z,2.60
2017-11-24T05:02:29.938Z,3.40
2017-11-24T05:03:29.966Z,2.70
2017-11-24T05:04:30.003Z,3.20
2017-11-24T05:05:30.030Z,3.20
2017-11-24T05:06:30.062Z,3.10
2017-11-24T05:07:30.095Z,3.00
2017-11-24T05:08:30.133Z,3.10
2017-11-24T05:09:30.158Z,2.70
2017-11-24T05:10:30.191Z,3.00
2017-11-24T05:11:30.224Z,3.20
2017-11-24T05:12:30.256Z,3.10
2017-11-24T05:13:30.287Z,3.00
2017-11-24T05:14:30.321Z,2.90
2017-11-24T05:15:30.353Z,2.90
2017-11-24T05:16:30.387Z,3.00
2017-11-24T05:17:30.418Z,2.80
2017-11-24T05:18:30.450Z,3.40
2017-11-24T05:19:30.484Z,3.10
2017-11-24T05:20:30.517Z,2.90
2017-11-24T05:21:30.549Z,3.30
2017-11-24T05:22:30.579Z,3.20
2017-11-24T05:23:30.613Z,2.90
2017-11-24T05:24:30.654Z,2.80
2017-11-24T05:25:30.680Z,3.70
2017-11-24T05:26:30.713Z,3.50
2017-11-24T05:27:30.746Z,3.20
2017-11-24T05:28:30.777Z,3.30
2017-11-24T05:29:30.810Z,3.20
2017-11-24T05:30:30.857Z,3.00
2017-11-24T05:31:30.875Z,3.10
2017-11-24T05:32:30.909Z,3.20
2017-11-24T05:33:30.941Z,3.40
2017-11-24T05:34:30.974Z,3.70
2017-11-24T05:35:31.008Z,3.20
2017-11-24T05:36:31.044Z,3.30
2017-11-24T05:37:31.073Z,3.10
2017-11-24T05:38:31.106Z,2.50
2017-11-24T05:39:31.139Z,2.80
2017-11-24T05:40:31.172Z,3.30
2017-11-24T05:41:31.205Z,3.00
2017-11-24T05:42:31.237Z,3.00
2017-11-24T05:43:31.269Z,2.40
2017-11-24T05:44:31.302Z,3.30
2017-11-24T05:45:31.335Z,3.40
2017-11-24T05:46:31.369Z,3.30
2017-11-24T05:47:31.402Z,3.00
2017-11-24T05:48:31.435Z,3.20
2017-11-24T05:49:31.467Z,3.00
2017-11-24T05:50:31.501Z,2.60
2017-11-24T05:51:31.534Z,2.90
2017-11-24T05:52:31.567Z,2.80
2017-11-24T05:53:31.601Z,3.00
2017-11-24T05:54:31.632Z,2.80
2017-11-24T05:55:31.666Z,2.90
2017-11-24T05:56:31.700Z,2.50
2017-11-24T05:57:31.732Z,2.50
2017-11-24T05:58:31.766Z,3.00
2017-11-24T05:59:31.798Z,2.70
2017-11-24T06:00:31.832Z,2.20
2017-11-24T06:01:31.865Z,2.00
2017-11-24T06:02:31.898Z,2.50
2017-11-24T06:03:31.932Z,2.40
2017-11-24T06:04:31.966Z,2.70
2017-11-24T06:05:31.997Z,3.10
2017-11-24T06:06:32.031Z,2.80
2017-11-24T06:07:32.062Z,2.70
2017-11-24T06:08:32.098Z,5.20
2017-11-24T06:09:32.130Z,6.50
2017-11-24T06:10:32.169Z,4.60
2017-11-24T06:11:32.196Z,3.60
2017-11-24T06:12:32.230Z,2.90
2017-11-24T06:13:32.262Z,2.60
2017-11-24T06:14:32.296Z,2.50
2017-11-24T06:15:32.331Z,2.60
2017-11-24T06:16:32.364Z,2.50
2017-11-24T06:17:32.399Z,2.30
2017-11-24T06:18:32.430Z,2.70
2017-11-24T06:19:32.463Z,3.30
2017-11-24T06:20:32.497Z,2.90
2017-11-24T06:21:32.529Z,2.60
2017-11-24T06:22:32.564Z,2.90
2017-11-24T06:23:32.597Z,3.10
2017-11-24T06:24:32.631Z,3.30
2017-11-24T06:25:32.664Z,2.40
2017-11-24T06:26:32.698Z,2.80
2017-11-24T06:27:32.731Z,3.00
2017-11-24T06:28:32.766Z,2.90
2017-11-24T06:29:32.797Z,3.30
2017-11-24T06:30:32.830Z,2.90
2017-11-24T06:31:32.865Z,2.90
2017-11-24T06:32:32.899Z,2.70
2017-11-24T06:33:32.944Z,3.00
2017-11-24T06:34:32.964Z,3.10
2017-11-24T06:35:33.002Z,2.20
2017-11-24T06:36:33.034Z,2.50
2017-11-24T06:37:33.065Z,2.40
2017-11-24T06:38:33.097Z,2.60
2017-11-24T06:39:33.132Z,2.50
2017-11-24T06:40:33.165Z,2.50
2017-11-24T06:41:33.199Z,2.20
2017-11-24T06:42:33.231Z,2.20
2017-11-24T06:43:33.267Z,2.30
2017-11-24T06:44:33.299Z,2.60
2017-11-24T06:45:33.332Z,2.50
2017-11-24T06:46:33.365Z,3.00
2017-11-24T06:47:33.400Z,2.80
2017-11-24T06:48:33.433Z,2.80
2017-11-24T06:49:33.466Z,2.90
2017-11-24T06:50:33.499Z,2.90
2017-11-24T06:51:33.532Z,2.40
2017-11-24T06:52:33.567Z,2.80
2017-11-24T06:53:33.600Z,2.40
2017-11-24T06:54:33.633Z,2.90
2017-11-24T06:55:33.668Z,2.90
2017-11-24T06:56:33.707Z,3.00
2017-11-24T06:57:33.739Z,2.50
2017-11-24T06:58:33.767Z,3.10
2017-11-24T06:59:33.801Z,3.00
2017-11-24T07:00:33.841Z,3.20
2017-11-24T07:01:33.868Z,2.80
2017-11-24T07:02:33.900Z,2.30
2017-11-24T07:03:33.936Z,2.70
2017-11-24T07:04:33.968Z,3.20
2017-11-24T07:05:34.002Z,3.40
2017-11-24T07:06:34.035Z,3.00
2017-11-24T07:07:34.071Z,3.50
2017-11-24T07:08:34.103Z,3.20
2017-11-24T07:09:34.136Z,3.20
2017-11-24T07:10:34.170Z,3.30
2017-11-24T07:11:34.205Z,3.10
2017-11-24T07:12:34.238Z,3.10
2017-11-24T07:13:34.270Z,2.60
2017-11-24T07:14:34.303Z,3.10
2017-11-24T07:15:34.341Z,2.80
2017-11-24T07:16:34.372Z,3.60
2017-11-24T07:17:34.403Z,3.60
2017-11-24T07:18:34.438Z,3.00
2017-11-24T07:19:34.472Z,2.20
2017-11-24T07:20:34.505Z,2.80
2017-11-24T07:21:34.539Z,3.20
2017-11-24T07:22:34.573Z,2.50
2017-11-24T07:23:34.607Z,3.10
2017-11-24T07:24:34.641Z,2.80
2017-11-24T07:25:34.672Z,2.80
2017-11-24T07:26:34.709Z,2.80
2017-11-24T07:27:34.740Z,3.00
2017-11-24T07:28:34.779Z,3.00
2017-11-24T07:29:34.809Z,2.80
2017-11-24T07:30:34.843Z,2.60
2017-11-24T07:31:34.877Z,3.00
2017-11-24T07:32:34.912Z,2.80
2017-11-24T07:33:34.946Z,3.00
2017-11-24T07:34:34.980Z,3.00
2017-11-24T07:35:35.014Z,2.30
2017-11-24T07:36:35.050Z,2.80
2017-11-24T07:37:35.083Z,2.50
2017-11-24T07:38:35.118Z,2.50
2017-11-24T07:39:35.151Z,2.60
2017-11-24T07:40:35.192Z,2.20
2017-11-24T07:41:35.220Z,2.00
2017-11-24T07:42:35.257Z,2.00
2017-11-24T07:43:35.293Z,2.30
2017-11-24T07:44:35.331Z,2.20
2017-11-24T07:45:35.362Z,2.30
2017-11-24T07:46:35.396Z,2.00
2017-11-24T07:47:35.432Z,2.40
2017-11-24T07:48:35.466Z,2.40
2017-11-24T07:49:35.511Z,2.70
2017-11-24T07:50:35.537Z,2.90
2017-11-24T07:51:35.573Z,3.20
2017-11-24T07:52:35.608Z,2.30
2017-11-24T07:53:35.643Z,2.70
2017-11-24T07:54:35.678Z,3.10
2017-11-24T07:55:35.716Z,4.40
2017-11-24T07:56:35.850Z,3.10
2017-11-24T07:57:35.785Z,2.60
2017-11-24T07:58:35.821Z,2.70
2017-11-24T07:59:35.856Z,3.80
2017-11-24T08:00:35.894Z,3.60
2017-11-24T08:01:35.927Z,3.00
2017-11-24T08:02:35.963Z,3.70
2017-11-24T08:03:36.000Z,2.80
2017-11-24T08:04:36.040Z,2.60
2017-11-24T08:05:36.072Z,2.80
2017-11-24T08:06:36.110Z,3.00
2017-11-24T08:07:36.145Z,2.30
2017-11-24T08:08:36.187Z,2.40
2017-11-24T08:09:36.218Z,2.40
2017-11-24T08:10:36.256Z,2.00
2017-11-24T08:11:36.296Z,2.50
2017-11-24T08:12:36.331Z,2.40
2017-11-24T08:13:36.367Z,2.70
2017-11-24T08:14:36.403Z,2.20
2017-11-24T08:15:36.442Z,2.20
2017-11-24T08:16:36.477Z,2.10
2017-11-24T08:17:36.516Z,2.70
2017-11-24T08:18:36.553Z,3.50
2017-11-24T08:19:36.591Z,2.40
2017-11-24T08:20:36.629Z,2.30
2017-11-24T08:21:36.665Z,1.80
2017-11-24T08:22:36.705Z,1.90
2017-11-24T08:23:36.742Z,1.90
2017-11-24T08:24:36.780Z,1.70
2017-11-24T08:25:36.818Z,2.20
2017-11-24T08:26:36.865Z,2.30
2017-11-24T08:27:36.894Z,2.30
2017-11-24T08:28:36.936Z,2.40
2017-11-24T08:29:36.977Z,2.40
2017-11-24T08:30:37.012Z,2.40
2017-11-24T08:31:37.051Z,2.20
2017-11-24T08:32:37.090Z,2.40
2017-11-24T08:33:37.129Z,2.40
2017-11-24T08:34:37.168Z,2.20
2017-11-24T08:35:37.208Z,2.20
2017-11-24T08:36:37.249Z,2.90
2017-11-24T08:37:37.287Z,2.70
2017-11-24T08:38:37.328Z,2.10
2017-11-24T08:39:37.369Z,2.30
2017-11-24T08:40:37.410Z,2.20
2017-11-24T08:41:37.449Z,2.20
2017-11-24T08:42:37.489Z,2.30
2017-11-24T08:43:37.531Z,2.30
2017-11-24T08:44:37.571Z,2.00
2017-11-24T08:45:37.613Z,2.20
2017-11-24T08:46:37.654Z,2.30
2017-11-24T08:47:37.696Z,2.10
2017-11-24T08:48:37.737Z,2.40
2017-11-24T08:49:37.779Z,2.10
2017-11-24T08:50:37.819Z,2.50
2017-11-24T08:51:37.862Z,2.10
2017-11-24T08:52:37.905Z,1.90
2017-11-24T08:53:37.947Z,1.90
2017-11-24T08:54:37.989Z,2.10
2017-11-24T08:55:38.029Z,2.20
2017-11-24T08:56:38.072Z,2.00
2017-11-24T08:57:38.114Z,2.30
2017-11-24T08:58:38.158Z,2.30
2017-11-24T08:59:38.200Z,2.00
2017-11-24T09:00:38.244Z,1.90
2017-11-24T09:01:38.285Z,1.90
2017-11-24T09:02:38.328Z,1.60
2017-11-24T09:03:38.371Z,1.90
2017-11-24T09:04:38.421Z,2.20
2017-11-24T09:05:38.458Z,2.40
2017-11-24T09:06:38.502Z,2.30
2017-11-24T09:07:38.545Z,1.90
2017-11-24T09:08:38.589Z,1.90
2017-11-24T09:09:38.632Z,1.70
2017-11-24T09:10:38.681Z,1.80
2017-11-24T09:11:38.720Z,1.90
2017-11-24T09:12:38.764Z,2.10
2017-11-24T09:13:38.806Z,1.80
2017-11-24T09:14:38.853Z,2.20
2017-11-24T09:15:38.894Z,2.30
2017-11-24T09:16:38.939Z,2.20
2017-11-24T09:17:38.981Z,1.90
2017-11-24T09:18:39.025Z,2.10
2017-11-24T09:19:39.068Z,2.00
2017-11-24T09:20:39.113Z,2.20
2017-11-24T09:21:39.165Z,1.90
2017-11-24T09:22:39.201Z,1.60
2017-11-24T09:23:39.247Z,1.50
2017-11-24T09:24:39.289Z,1.70
2017-11-24T09:25:39.340Z,2.00
2017-11-24T09:26:39.377Z,1.90
2017-11-24T09:27:39.422Z,1.90
2017-11-24T09:28:39.467Z,1.70
2017-11-24T09:29:39.510Z,1.90
2017-11-24T09:30:39.555Z,1.50
2017-11-24T09:31:39.605Z,1.90
2017-11-24T09:32:39.646Z,2.30
2017-11-24T09:33:39.720Z,2.30
2017-11-24T09:34:39.737Z,1.90
2017-11-24T09:35:39.780Z,1.80
2017-11-24T09:36:39.826Z,2.00
2017-11-24T09:37:39.869Z,2.10
2017-11-24T09:38:39.917Z,2.10
2017-11-24T09:39:39.960Z,2.20
2017-11-24T09:40:40.006Z,2.70
2017-11-24T09:41:40.053Z,1.90
2017-11-24T09:42:40.093Z,2.90
2017-11-24T09:43:40.137Z,3.10
2017-11-24T09:44:40.182Z,2.70
2017-11-24T09:45:40.236Z,2.60
2017-11-24T09:46:40.268Z,3.20
2017-11-24T09:47:40.314Z,2.90
2017-11-24T09:48:40.357Z,2.40
2017-11-24T09:49:40.399Z,1.80
2017-11-24T09:50:40.465Z,1.50
2017-11-24T09:51:40.486Z,2.20
2017-11-24T09:52:40.529Z,1.70
2017-11-24T09:53:40.573Z,2.30
2017-11-24T09:54:40.616Z,2.00
2017-11-24T09:55:40.660Z,2.00
2017-11-24T09:56:40.705Z,1.70
2017-11-24T09:57:40.748Z,2.10
2017-11-24T09:58:40.792Z,2.10
2017-11-24T09:59:40.837Z,1.90
2017-11-24T10:00:40.883Z,1.80
2017-11-24T10:01:40.926Z,1.80
2017-11-24T10:02:41.022Z,1.70
2017-11-24T10:03:41.017Z,2.20
2017-11-24T10:04:41.063Z,2.10
2017-11-24T10:05:41.107Z,2.20
2017-11-24T10:06:41.152Z,2.40
2017-11-24T10:07:41.197Z,1.90
2017-11-24T10:08:41.242Z,1.90
2017-11-24T10:09:41.286Z,1.80
2017-11-24T10:10:41.339Z,2.10
2017-11-24T10:11:41.377Z,2.30
2017-11-24T10:12:41.421Z,2.30
2017-11-24T10:13:41.467Z,2.00
2017-11-24T10:14:41.511Z,2.40
2017-11-24T10:15:41.556Z,1.90
2017-11-24T10:16:41.601Z,2.30
2017-11-24T10:17:41.645Z,2.30
2017-11-24T10:18:41.690Z,2.10
2017-11-24T10:19:41.736Z,2.10
2017-11-24T10:20:41.781Z,2.10
2017-11-24T10:21:41.825Z,1.90
2017-11-24T10:22:41.874Z,2.80
2017-11-24T10:23:41.917Z,4.10
2017-11-24T10:24:41.961Z,2.60
2017-11-24T10:25:42.006Z,2.00
2017-11-24T10:26:42.053Z,1.80
2017-11-24T10:27:42.106Z,2.10
2017-11-24T10:28:42.145Z,2.00
2017-11-24T10:29:42.195Z,1.80
2017-11-24T10:30:42.253Z,2.20
2017-11-24T10:31:42.285Z,2.20
2017-11-24T10:32:42.329Z,1.90
2017-11-24T10:33:42.388Z,1.80
2017-11-24T10:34:42.419Z,2.70
2017-11-24T10:35:42.469Z,2.60
2017-11-24T10:36:42.533Z,2.40
2017-11-24T10:37:42.574Z,2.10
2017-11-24T10:38:42.615Z,1.90
2017-11-24T10:39:42.655Z,1.60
2017-11-24T10:40:42.703Z,1.80
2017-11-24T10:41:42.756Z,2.30
2017-11-24T10:42:42.801Z,2.10
2017-11-24T10:43:42.847Z,1.90
2017-11-24T10:44:42.891Z,2.10
2017-11-24T10:45:42.946Z,2.60
2017-11-24T10:46:42.986Z,2.00
2017-11-24T10:47:43.045Z,2.30
2017-11-24T10:48:43.087Z,1.90
2017-11-24T10:49:43.133Z,1.90
2017-11-24T10:50:43.184Z,2.70
2017-11-24T10:51:43.218Z,2.00
2017-11-24T10:52:43.264Z,2.50
2017-11-24T10:53:43.308Z,1.70
2017-11-24T10:54:43.356Z,1.80
2017-11-24T10:55:43.417Z,2.40
2017-11-24T10:56:43.455Z,2.90
2017-11-24T10:57:43.500Z,2.50
2017-11-24T10:58:43.533Z,2.30
2017-11-24T10:59:43.577Z,2.10
2017-11-24T11:00:43.637Z,2.70
2017-11-24T11:01:43.664Z,2.30
2017-11-24T11:02:43.719Z,2.10
2017-11-24T11:03:43.752Z,2.00
2017-11-24T11:04:43.794Z,2.20
2017-11-24T11:05:43.838Z,2.10
2017-11-24T11:06:43.879Z,2.00
2017-11-24T11:07:43.932Z,2.00
2017-11-24T11:08:43.966Z,1.90
2017-11-24T11:09:44.011Z,2.50
2017-11-24T11:10:44.047Z,2.40
2017-11-24T11:11:44.089Z,2.80
2017-11-24T11:12:44.227Z,2.20
2017-11-24T11:13:44.173Z,2.10
2017-11-24T11:14:44.241Z,1.90
2017-11-24T11:15:44.275Z,2.00
2017-11-24T11:16:44.326Z,2.20
2017-11-24T11:17:44.366Z,2.30
2017-11-24T11:18:44.407Z,2.00
2017-11-24T11:19:44.444Z,2.00
2017-11-24T11:20:44.506Z,1.90
2017-11-24T11:21:44.505Z,2.00
2017-11-24T11:22:44.547Z,2.10
2017-11-24T11:23:44.588Z,2.10
2017-11-24T11:24:44.629Z,2.50
2017-11-24T11:25:44.668Z,2.00
2017-11-24T11:26:44.715Z,2.30
2017-11-24T11:27:44.752Z,2.20
2017-11-24T11:28:44.792Z,1.90
2017-11-24T11:29:44.831Z,2.30
2017-11-24T11:30:44.879Z,2.00
2017-11-24T11:31:44.913Z,2.40
2017-11-24T11:32:44.953Z,2.20
2017-11-24T11:33:44.993Z,2.00
2017-11-24T11:34:45.034Z,2.30
2017-11-24T11:35:45.074Z,2.10
2017-11-24T11:36:45.113Z,2.40
2017-11-24T11:37:45.153Z,2.60
2017-11-24T11:38:45.192Z,2.10
2017-11-24T11:39:45.232Z,2.10
2017-11-24T11:40:45.273Z,1.80
2017-11-24T11:41:45.311Z,2.40
2017-11-24T11:42:45.351Z,2.50
2017-11-24T11:43:45.390Z,2.70
2017-11-24T11:44:45.430Z,2.50
2017-11-24T11:45:45.481Z,2.70
2017-11-24T11:46:45.509Z,2.10
2017-11-24T11:47:45.546Z,2.70
2017-11-24T11:48:45.603Z,2.40
2017-11-24T11:49:45.624Z,2.50
2017-11-24T11:50:45.663Z,2.80
2017-11-24T11:51:45.701Z,2.60
2017-11-24T11:52:45.740Z,2.40
2017-11-24T11:53:45.778Z,2.50
2017-11-24T11:54:45.817Z,2.30
2017-11-24T11:55:45.856Z,3.00
2017-11-24T11:56:45.906Z,2.50
2017-11-24T11:57:45.932Z,2.50
2017-11-24T11:58:45.970Z,2.40
2017-11-24T11:59:46.009Z,2.30
2017-11-24T12:00:46.048Z,2.70
2017-11-24T12:01:46.089Z,2.40
2017-11-24T12:02:46.123Z,2.80
2017-11-24T12:03:46.161Z,2.40
2017-11-24T12:04:46.200Z,2.20
2017-11-24T12:05:46.240Z,2.50
2017-11-24T12:06:46.274Z,2.50
2017-11-24T12:07:46.313Z,3.20
2017-11-24T12:08:46.351Z,2.70
2017-11-24T12:09:46.388Z,2.60
2017-11-24T12:10:46.426Z,3.10
2017-11-24T12:11:46.464Z,2.80
2017-11-24T12:12:46.502Z,2.70
2017-11-24T12:13:46.538Z,2.90
2017-11-24T12:14:46.575Z,3.10
2017-11-24T12:15:46.615Z,3.00
2017-11-24T12:16:46.652Z,2.60
2017-11-24T12:17:46.689Z,2.90
2017-11-24T12:18:46.726Z,2.70
2017-11-24T12:19:46.764Z,2.80
2017-11-24T12:20:46.801Z,3.20
2017-11-24T12:21:46.837Z,2.70
2017-11-24T12:22:46.874Z,3.00
2017-11-24T12:23:46.914Z,3.30
2017-11-24T12:24:46.948Z,3.00
2017-11-24T12:25:46.986Z,3.20
2017-11-24T12:26:47.023Z,3.30
2017-11-24T12:27:47.061Z,3.20
2017-11-24T12:28:47.098Z,3.50
2017-11-24T12:29:47.137Z,3.30
2017-11-24T12:30:47.172Z,4.10
2017-11-24T12:31:47.209Z,3.50
2017-11-24T12:32:47.246Z,3.00
2017-11-24T12:33:47.283Z,3.30
2017-11-24T12:34:47.318Z,3.30
2017-11-24T12:35:47.360Z,3.70
2017-11-24T12:36:47.393Z,3.60
2017-11-24T12:37:47.438Z,3.70
2017-11-24T12:38:47.466Z,4.50
2017-11-24T12:39:47.502Z,4.60
2017-11-24T12:40:47.540Z,4.60
2017-11-24T12:41:47.576Z,4.10
2017-11-24T12:42:47.612Z,3.70
2017-11-24T12:43:47.649Z,3.50
2017-11-24T12:44:47.687Z,3.40
2017-11-24T12:45:47.721Z,4.00
2017-11-24T12:46:47.765Z,3.50
2017-11-24T12:47:47.795Z,3.60
2017-11-24T12:48:47.832Z,2.90
2017-11-24T12:49:47.867Z,3.50
2017-11-24T12:50:47.912Z,3.30
2017-11-24T12:51:47.940Z,2.60
2017-11-24T12:52:47.974Z,3.20
2017-11-24T12:53:48.011Z,3.10
2017-11-24T12:54:48.047Z,3.20
2017-11-24T12:55:48.083Z,3.70
2017-11-24T12:56:48.119Z,3.60
2017-11-24T12:57:48.155Z,3.90
2017-11-24T12:58:48.191Z,3.70
2017-11-24T12:59:48.227Z,3.70
2017-11-24T13:00:48.262Z,4.00
2017-11-24T13:01:48.298Z,4.00
2017-11-24T13:02:48.338Z,4.30
2017-11-24T13:03:48.369Z,3.80
2017-11-24T13:04:48.405Z,4.00
2017-11-24T13:05:48.440Z,4.10
2017-11-24T13:06:48.478Z,3.60
2017-11-24T13:07:48.518Z,4.10
2017-11-24T13:08:48.547Z,4.20
2017-11-24T13:09:48.581Z,4.10
2017-11-24T13:10:48.617Z,4.10
2017-11-24T13:11:48.654Z,4.30
2017-11-24T13:12:48.688Z,4.30
2017-11-24T13:13:48.725Z,4.30
2017-11-24T13:14:48.760Z,4.20
2017-11-24T13:15:48.795Z,4.00
2017-11-24T13:16:48.830Z,4.20
2017-11-24T13:17:48.894Z,4.20
2017-11-24T13:18:48.900Z,4.60